sensor_id;sensor_type;location;lat;lon;timestamp;pressure;altitude;pressure_sealevel;temperature
63113;BMP280;49206;48.020;21.378;2022-08-01T00:04:46;100283.88;;;18.22
63113;BMP280;49206;48.020;21.378;2022-08-01T00:14:49;100294.63;;;18.12
63113;BMP280;49206;48.020;21.378;2022-08-01T00:24:51;100291.56;;;18.17
63113;BMP280;49206;48.020;21.378;2022-08-01T00:34:55;100311.06;;;18.10
63113;BMP280;49206;48.020;21.378;2022-08-01T00:44:57;100301.09;;;18.18
63113;BMP280;49206;48.020;21.378;2022-08-01T00:55:01;100304.16;;;18.16
63113;BMP280;49206;48.020;21.378;2022-08-01T01:05:04;100289.28;;;18.12
63113;BMP280;49206;48.020;21.378;2022-08-01T01:15:10;100298.38;;;18.25
63113;BMP280;49206;48.020;21.378;2022-08-01T01:25:26;100289.66;;;18.14
63113;BMP280;49206;48.020;21.378;2022-08-01T01:35:36;100294.22;;;18.17
63113;BMP280;49206;48.020;21.378;2022-08-01T01:45:41;100305.31;;;18.12
63113;BMP280;49206;48.020;21.378;2022-08-01T01:55:52;100297.31;;;18.01
63113;BMP280;49206;48.020;21.378;2022-08-01T02:05:55;100296.91;;;18.06
63113;BMP280;49206;48.020;21.378;2022-08-01T02:16:00;100291.22;;;18.01
63113;BMP280;49206;48.020;21.378;2022-08-01T02:26:07;100299.66;;;17.85
63113;BMP280;49206;48.020;21.378;2022-08-01T02:36:13;100298.88;;;17.92
63113;BMP280;49206;48.020;21.378;2022-08-01T02:46:56;100294.22;;;18.13
63113;BMP280;49206;48.020;21.378;2022-08-01T02:57:00;100301.19;;;17.86
63113;BMP280;49206;48.020;21.378;2022-08-01T03:07:08;100290.13;;;17.81
63113;BMP280;49206;48.020;21.378;2022-08-01T03:17:12;100282.53;;;17.62
63113;BMP280;49206;48.020;21.378;2022-08-01T03:27:22;100286.31;;;17.75
63113;BMP280;49206;48.020;21.378;2022-08-01T03:37:30;100282.53;;;17.76
63113;BMP280;49206;48.020;21.378;2022-08-01T03:47:37;100286.66;;;17.84
63113;BMP280;49206;48.020;21.378;2022-08-01T03:57:46;100268.28;;;18.10
63113;BMP280;49206;48.020;21.378;2022-08-01T04:07:51;100278.16;;;18.20
63113;BMP280;49206;48.020;21.378;2022-08-01T04:17:58;100291.94;;;18.19
63113;BMP280;49206;48.020;21.378;2022-08-01T04:28:02;100295.72;;;18.21
63113;BMP280;49206;48.020;21.378;2022-08-01T04:38:07;100300.59;;;18.40
63113;BMP280;49206;48.020;21.378;2022-08-01T04:48:11;100303.22;;;18.54
63113;BMP280;49206;48.020;21.378;2022-08-01T04:58:15;100308.94;;;18.56
63113;BMP280;49206;48.020;21.378;2022-08-01T05:08:19;100305.84;;;18.65
63113;BMP280;49206;48.020;21.378;2022-08-01T05:18:23;100300.69;;;18.91
63113;BMP280;49206;48.020;21.378;2022-08-01T05:28:29;100308.31;;;18.96
63113;BMP280;49206;48.020;21.378;2022-08-01T05:38:31;100322.06;;;18.98
63113;BMP280;49206;48.020;21.378;2022-08-01T05:48:34;100320.19;;;18.92
63113;BMP280;49206;48.020;21.378;2022-08-01T05:58:39;100332.66;;;19.12
63113;BMP280;49206;48.020;21.378;2022-08-01T06:08:42;100339.47;;;19.23
63113;BMP280;49206;48.020;21.378;2022-08-01T06:18:47;100356.88;;;19.45
63113;BMP280;49206;48.020;21.378;2022-08-01T06:28:49;100359.88;;;19.54
63113;BMP280;49206;48.020;21.378;2022-08-01T06:38:52;100358.41;;;19.46
63113;BMP280;49206;48.020;21.378;2022-08-01T06:48:54;100362.72;;;19.77
63113;BMP280;49206;48.020;21.378;2022-08-01T06:58:56;100377.16;;;19.90
63113;BMP280;49206;48.020;21.378;2022-08-01T07:09:02;100382.56;;;19.83
63113;BMP280;49206;48.020;21.378;2022-08-01T07:19:13;100372.38;;;20.38
63113;BMP280;49206;48.020;21.378;2022-08-01T07:29:15;100372.72;;;20.70
63113;BMP280;49206;48.020;21.378;2022-08-01T07:39:19;100366.44;;;20.80
63113;BMP280;49206;48.020;21.378;2022-08-01T07:49:21;100361.97;;;20.96
63113;BMP280;49206;48.020;21.378;2022-08-01T07:59:24;100364.47;;;20.84
63113;BMP280;49206;48.020;21.378;2022-08-01T08:04:10;100370.75;;;21.23
63113;BMP280;49206;48.020;21.378;2022-08-01T08:05:14;100373.03;;;21.24
63113;BMP280;49206;48.020;21.378;2022-08-01T08:06:36;100377.19;;;21.29
63113;BMP280;49206;48.020;21.378;2022-08-01T08:07:39;100376.25;;;21.16
63113;BMP280;49206;48.020;21.378;2022-08-01T08:08:43;100377.44;;;21.38
63113;BMP280;49206;48.020;21.378;2022-08-01T08:09:47;100370.00;;;21.45
63113;BMP280;49206;48.020;21.378;2022-08-01T08:10:52;100377.19;;;21.52
63113;BMP280;49206;48.020;21.378;2022-08-01T08:11:54;100379.09;;;21.51
63113;BMP280;49206;48.020;21.378;2022-08-01T08:12:57;100380.03;;;21.64
63113;BMP280;49206;48.020;21.378;2022-08-01T08:13:59;100379.38;;;21.80
63113;BMP280;49206;48.020;21.378;2022-08-01T08:15:02;100384.31;;;21.62
63113;BMP280;49206;48.020;21.378;2022-08-01T08:16:08;100386.81;;;21.72
63113;BMP280;49206;48.020;21.378;2022-08-01T08:17:12;100382.91;;;21.54
63113;BMP280;49206;48.020;21.378;2022-08-01T08:18:17;100380.63;;;21.52
63113;BMP280;49206;48.020;21.378;2022-08-01T08:19:19;100383.31;;;21.52
63113;BMP280;49206;48.020;21.378;2022-08-01T08:20:38;100385.84;;;21.63
63113;BMP280;49206;48.020;21.378;2022-08-01T08:21:41;100392.06;;;21.56
63113;BMP280;49206;48.020;21.378;2022-08-01T08:22:44;100389.97;;;21.67
63113;BMP280;49206;48.020;21.378;2022-08-01T08:23:49;100389.38;;;21.56
63113;BMP280;49206;48.020;21.378;2022-08-01T08:25:14;100390.66;;;21.48
63113;BMP280;49206;48.020;21.378;2022-08-01T08:26:17;100388.06;;;21.45
63113;BMP280;49206;48.020;21.378;2022-08-01T08:27:19;100383.75;;;21.51
63113;BMP280;49206;48.020;21.378;2022-08-01T08:28:22;100387.88;;;21.55
63113;BMP280;49206;48.020;21.378;2022-08-01T08:29:30;100384.06;;;21.53
63113;BMP280;49206;48.020;21.378;2022-08-01T08:30:34;100384.72;;;21.60
63113;BMP280;49206;48.020;21.378;2022-08-01T08:31:38;100377.78;;;21.63
63113;BMP280;49206;48.020;21.378;2022-08-01T08:32:53;100381.56;;;21.65
63113;BMP280;49206;48.020;21.378;2022-08-01T08:33:56;100381.78;;;21.74
63113;BMP280;49206;48.020;21.378;2022-08-01T08:34:59;100377.09;;;21.78
63113;BMP280;49206;48.020;21.378;2022-08-01T08:36:02;100375.16;;;21.79
63113;BMP280;49206;48.020;21.378;2022-08-01T08:37:05;100378.34;;;21.93
63113;BMP280;49206;48.020;21.378;2022-08-01T08:38:11;100379.09;;;22.13
63113;BMP280;49206;48.020;21.378;2022-08-01T08:39:16;100371.00;;;22.32
63113;BMP280;49206;48.020;21.378;2022-08-01T08:40:22;100381.13;;;22.44
63113;BMP280;49206;48.020;21.378;2022-08-01T08:41:26;100389.28;;;22.60
63113;BMP280;49206;48.020;21.378;2022-08-01T08:42:39;100381.78;;;22.68
63113;BMP280;49206;48.020;21.378;2022-08-01T08:43:46;100388.06;;;22.61
63113;BMP280;49206;48.020;21.378;2022-08-01T08:44:49;100390.28;;;22.47
63113;BMP280;49206;48.020;21.378;2022-08-01T08:45:52;100388.78;;;22.46
63113;BMP280;49206;48.020;21.378;2022-08-01T08:47:02;100391.69;;;22.71
63113;BMP280;49206;48.020;21.378;2022-08-01T08:48:12;100391.38;;;22.85
63113;BMP280;49206;48.020;21.378;2022-08-01T08:49:28;100393.06;;;22.95
63113;BMP280;49206;48.020;21.378;2022-08-01T08:50:37;100388.28;;;22.86
63113;BMP280;49206;48.020;21.378;2022-08-01T08:51:43;100397.19;;;22.99
63113;BMP280;49206;48.020;21.378;2022-08-01T08:52:49;100398.22;;;23.21
63113;BMP280;49206;48.020;21.378;2022-08-01T09:03:30;100405.41;;;22.76
63113;BMP280;49206;48.020;21.378;2022-08-01T09:13:34;100405.28;;;23.47
63113;BMP280;49206;48.020;21.378;2022-08-01T09:23:48;100404.81;;;23.93
63113;BMP280;49206;48.020;21.378;2022-08-01T09:33:58;100400.88;;;24.84
63113;BMP280;49206;48.020;21.378;2022-08-01T09:44:01;100391.00;;;25.79
63113;BMP280;49206;48.020;21.378;2022-08-01T09:54:06;100398.91;;;25.52
63113;BMP280;49206;48.020;21.378;2022-08-01T10:04:18;100397.41;;;25.30
63113;BMP280;49206;48.020;21.378;2022-08-01T10:14:22;100400.44;;;24.61
63113;BMP280;49206;48.020;21.378;2022-08-01T10:24:28;100412.03;;;24.61
63113;BMP280;49206;48.020;21.378;2022-08-01T10:34:33;100403.44;;;24.88
63113;BMP280;49206;48.020;21.378;2022-08-01T10:44:36;100408.00;;;24.91
63113;BMP280;49206;48.020;21.378;2022-08-01T10:54:40;100402.84;;;25.17
63113;BMP280;49206;48.020;21.378;2022-08-01T11:05:12;100399.69;;;25.31
63113;BMP280;49206;48.020;21.378;2022-08-01T11:15:21;100391.06;;;25.12
63113;BMP280;49206;48.020;21.378;2022-08-01T11:46:16;100378.38;;;26.46
63113;BMP280;49206;48.020;21.378;2022-08-01T11:56:33;100362.09;;;28.45
63113;BMP280;49206;48.020;21.378;2022-08-01T12:06:49;100351.16;;;28.53
63113;BMP280;49206;48.020;21.378;2022-08-01T12:16:54;100341.84;;;29.99
63113;BMP280;49206;48.020;21.378;2022-08-01T12:26:57;100332.03;;;28.86
63113;BMP280;49206;48.020;21.378;2022-08-01T12:37:01;100338.41;;;28.83
63113;BMP280;49206;48.020;21.378;2022-08-01T12:47:08;100345.94;;;30.68
63113;BMP280;49206;48.020;21.378;2022-08-01T12:57:23;100343.69;;;30.27
63113;BMP280;49206;48.020;21.378;2022-08-01T13:07:49;100344.84;;;30.20
63113;BMP280;49206;48.020;21.378;2022-08-01T13:17:53;100342.09;;;30.20
63113;BMP280;49206;48.020;21.378;2022-08-01T13:28:18;100325.34;;;30.67
63113;BMP280;49206;48.020;21.378;2022-08-01T13:38:22;100334.38;;;30.33
63113;BMP280;49206;48.020;21.378;2022-08-01T13:48:43;100330.97;;;30.38
63113;BMP280;49206;48.020;21.378;2022-08-01T13:58:47;100328.63;;;30.51
63113;BMP280;49206;48.020;21.378;2022-08-01T14:08:50;100337.72;;;30.43
63113;BMP280;49206;48.020;21.378;2022-08-01T14:18:53;100344.09;;;30.60
63113;BMP280;49206;48.020;21.378;2022-08-01T14:28:56;100340.09;;;30.55
63113;BMP280;49206;48.020;21.378;2022-08-01T14:38:59;100337.03;;;29.94
63113;BMP280;49206;48.020;21.378;2022-08-01T14:49:02;100332.94;;;29.35
63113;BMP280;49206;48.020;21.378;2022-08-01T14:59:04;100343.44;;;29.28
63113;BMP280;49206;48.020;21.378;2022-08-01T15:09:22;100338.38;;;29.21
63113;BMP280;49206;48.020;21.378;2022-08-01T15:19:25;100345.03;;;29.20
63113;BMP280;49206;48.020;21.378;2022-08-01T15:29:28;100337.41;;;29.09
63113;BMP280;49206;48.020;21.378;2022-08-01T15:39:32;100337.91;;;28.70
63113;BMP280;49206;48.020;21.378;2022-08-01T15:49:37;100337.34;;;28.43
63113;BMP280;49206;48.020;21.378;2022-08-01T15:59:40;100336.88;;;28.21
63113;BMP280;49206;48.020;21.378;2022-08-01T16:09:43;100354.66;;;27.30
63113;BMP280;49206;48.020;21.378;2022-08-01T16:19:45;100342.59;;;27.22
63113;BMP280;49206;48.020;21.378;2022-08-01T16:29:48;100354.91;;;26.52
63113;BMP280;49206;48.020;21.378;2022-08-01T16:39:50;100346.34;;;26.14
63113;BMP280;49206;48.020;21.378;2022-08-01T16:49:57;100339.13;;;25.81
63113;BMP280;49206;48.020;21.378;2022-08-01T17:00:00;100328.22;;;25.41
63113;BMP280;49206;48.020;21.378;2022-08-01T17:10:03;100345.25;;;24.96
63113;BMP280;49206;48.020;21.378;2022-08-01T17:20:06;100357.31;;;24.70
63113;BMP280;49206;48.020;21.378;2022-08-01T17:30:09;100363.28;;;24.40
63113;BMP280;49206;48.020;21.378;2022-08-01T17:40:15;100370.38;;;24.09
63113;BMP280;49206;48.020;21.378;2022-08-01T17:50:38;100387.69;;;23.55
63113;BMP280;49206;48.020;21.378;2022-08-01T18:00:40;100392.38;;;23.07
63113;BMP280;49206;48.020;21.378;2022-08-01T18:10:43;100405.06;;;22.39
63113;BMP280;49206;48.020;21.378;2022-08-01T18:20:46;100411.09;;;21.88
63113;BMP280;49206;48.020;21.378;2022-08-01T18:30:49;100417.75;;;21.61
63113;BMP280;49206;48.020;21.378;2022-08-01T18:40:51;100430.41;;;21.37
63113;BMP280;49206;48.020;21.378;2022-08-01T18:50:53;100443.19;;;21.07
63113;BMP280;49206;48.020;21.378;2022-08-01T19:00:58;100444.94;;;20.91
63113;BMP280;49206;48.020;21.378;2022-08-01T19:11:00;100458.09;;;20.52
63113;BMP280;49206;48.020;21.378;2022-08-01T19:21:02;100462.97;;;20.27
63113;BMP280;49206;48.020;21.378;2022-08-01T19:31:08;100461.94;;;20.14
63113;BMP280;49206;48.020;21.378;2022-08-01T19:41:10;100474.63;;;20.10
63113;BMP280;49206;48.020;21.378;2022-08-01T19:51:16;100491.03;;;19.72
63113;BMP280;49206;48.020;21.378;2022-08-01T20:01:19;100490.63;;;19.77
63113;BMP280;49206;48.020;21.378;2022-08-01T20:11:22;100478.47;;;19.62
63113;BMP280;49206;48.020;21.378;2022-08-01T20:21:27;100482.72;;;19.59
63113;BMP280;49206;48.020;21.378;2022-08-01T20:31:30;100497.28;;;19.58
63113;BMP280;49206;48.020;21.378;2022-08-01T20:41:50;100500.41;;;19.46
63113;BMP280;49206;48.020;21.378;2022-08-01T20:52:01;100499.16;;;19.65
63113;BMP280;49206;48.020;21.378;2022-08-01T21:13:05;100507.03;;;19.86
63113;BMP280;49206;48.020;21.378;2022-08-01T21:23:23;100503.06;;;20.01
63113;BMP280;49206;48.020;21.378;2022-08-01T21:33:32;100515.03;;;19.93
63113;BMP280;49206;48.020;21.378;2022-08-01T21:43:35;100512.84;;;19.74
63113;BMP280;49206;48.020;21.378;2022-08-01T21:53:47;100522.03;;;19.76
63113;BMP280;49206;48.020;21.378;2022-08-01T22:03:52;100533.09;;;19.82
63113;BMP280;49206;48.020;21.378;2022-08-01T22:14:01;100527.03;;;19.71
63113;BMP280;49206;48.020;21.378;2022-08-01T22:24:06;100535.09;;;19.71
63113;BMP280;49206;48.020;21.378;2022-08-01T22:34:08;100528.94;;;19.77
63113;BMP280;49206;48.020;21.378;2022-08-01T22:44:13;100526.31;;;19.67
63113;BMP280;49206;48.020;21.378;2022-08-01T22:54:25;100531.03;;;19.45
63113;BMP280;49206;48.020;21.378;2022-08-01T23:04:40;100537.22;;;19.32
63113;BMP280;49206;48.020;21.378;2022-08-01T23:14:50;100536.16;;;19.15
63113;BMP280;49206;48.020;21.378;2022-08-01T23:24:55;100537.00;;;18.95
63113;BMP280;49206;48.020;21.378;2022-08-01T23:35:06;100532.44;;;18.95
63113;BMP280;49206;48.020;21.378;2022-08-01T23:45:09;100539.72;;;18.92
63113;BMP280;49206;48.020;21.378;2022-08-01T23:55:12;100535.06;;;19.06
